sensor_id;sensor_type;location;lat;lon;timestamp;temperature;humidity
10678;DHT22;5387;48.722;9.110;2023-02-21T00:00:30;2.60;99.90
10678;DHT22;5387;48.722;9.110;2023-02-21T00:03:14;2.60;99.90
10678;DHT22;5387;48.722;9.110;2023-02-21T00:05:58;2.60;99.90
10678;DHT22;5387;48.722;9.110;2023-02-21T00:08:43;2.70;99.90
10678;DHT22;5387;48.722;9.110;2023-02-21T00:11:27;2.70;99.90
10678;DHT22;5387;48.722;9.110;2023-02-21T00:14:13;2.60;99.90
10678;DHT22;5387;48.722;9.110;2023-02-21T00:16:57;2.60;99.90
10678;DHT22;5387;48.722;9.110;2023-02-21T00:19:41;2.60;99.90
10678;DHT22;5387;48.722;9.110;2023-02-21T00:22:25;2.40;99.90
10678;DHT22;5387;48.722;9.110;2023-02-21T00:25:10;2.30;99.90
10678;DHT22;5387;48.722;9.110;2023-02-21T00:27:54;2.20;99.90
10678;DHT22;5387;48.722;9.110;2023-02-21T00:30:39;2.30;99.90
10678;DHT22;5387;48.722;9.110;2023-02-21T00:33:24;2.30;99.90
10678;DHT22;5387;48.722;9.110;2023-02-21T00:36:08;2.20;99.90
10678;DHT22;5387;48.722;9.110;2023-02-21T00:38:52;2.20;99.90
10678;DHT22;5387;48.722;9.110;2023-02-21T00:41:36;2.20;99.90
10678;DHT22;5387;48.722;9.110;2023-02-21T00:44:21;2.20;99.90
10678;DHT22;5387;48.722;9.110;2023-02-21T00:47:06;2.20;99.90
10678;DHT22;5387;48.722;9.110;2023-02-21T00:49:51;2.20;99.90
10678;DHT22;5387;48.722;9.110;2023-02-21T00:52:35;2.20;99.90
10678;DHT22;5387;48.722;9.110;2023-02-21T00:55:19;2.10;99.90
10678;DHT22;5387;48.722;9.110;2023-02-21T00:58:03;2.10;99.90
10678;DHT22;5387;48.722;9.110;2023-02-21T01:00:48;2.00;99.90
10678;DHT22;5387;48.722;9.110;2023-02-21T01:03:33;2.00;99.90
10678;DHT22;5387;48.722;9.110;2023-02-21T01:06:17;2.10;99.90
10678;DHT22;5387;48.722;9.110;2023-02-21T01:09:02;2.10;99.90
10678;DHT22;5387;48.722;9.110;2023-02-21T01:11:46;2.20;99.90
10678;DHT22;5387;48.722;9.110;2023-02-21T01:14:30;2.20;99.90
10678;DHT22;5387;48.722;9.110;2023-02-21T01:17:14;2.20;99.90
10678;DHT22;5387;48.722;9.110;2023-02-21T01:20:00;2.20;99.90
10678;DHT22;5387;48.722;9.110;2023-02-21T01:22:45;2.20;99.90
10678;DHT22;5387;48.722;9.110;2023-02-21T01:25:30;2.20;99.90
10678;DHT22;5387;48.722;9.110;2023-02-21T01:28:14;2.20;99.90
10678;DHT22;5387;48.722;9.110;2023-02-21T01:30:58;2.20;99.90
10678;DHT22;5387;48.722;9.110;2023-02-21T01:33:43;2.20;99.90
10678;DHT22;5387;48.722;9.110;2023-02-21T01:36:28;2.20;99.90
10678;DHT22;5387;48.722;9.110;2023-02-21T01:39:14;2.00;99.90
10678;DHT22;5387;48.722;9.110;2023-02-21T01:41:58;2.00;99.90
10678;DHT22;5387;48.722;9.110;2023-02-21T01:44:44;2.00;99.90
10678;DHT22;5387;48.722;9.110;2023-02-21T01:47:29;2.10;99.90
10678;DHT22;5387;48.722;9.110;2023-02-21T01:50:17;2.10;99.90
10678;DHT22;5387;48.722;9.110;2023-02-21T01:53:07;2.10;99.90
10678;DHT22;5387;48.722;9.110;2023-02-21T01:55:52;2.10;99.90
10678;DHT22;5387;48.722;9.110;2023-02-21T01:58:38;2.20;99.90
10678;DHT22;5387;48.722;9.110;2023-02-21T02:01:30;2.10;99.90
10678;DHT22;5387;48.722;9.110;2023-02-21T02:04:16;2.20;99.90
10678;DHT22;5387;48.722;9.110;2023-02-21T02:07:00;2.20;99.90
10678;DHT22;5387;48.722;9.110;2023-02-21T02:09:46;2.30;99.90
10678;DHT22;5387;48.722;9.110;2023-02-21T02:15:39;2.20;99.90
10678;DHT22;5387;48.722;9.110;2023-02-21T02:18:28;2.20;99.90
10678;DHT22;5387;48.722;9.110;2023-02-21T02:21:28;2.40;99.90
10678;DHT22;5387;48.722;9.110;2023-02-21T02:27:24;2.40;99.90
10678;DHT22;5387;48.722;9.110;2023-02-21T02:33:14;2.70;99.90
10678;DHT22;5387;48.722;9.110;2023-02-21T02:35:49;2.70;99.90
10678;DHT22;5387;48.722;9.110;2023-02-21T02:38:23;2.90;99.90
10678;DHT22;5387;48.722;9.110;2023-02-21T02:40:58;2.90;99.90
10678;DHT22;5387;48.722;9.110;2023-02-21T02:43:29;3.00;99.90
10678;DHT22;5387;48.722;9.110;2023-02-21T02:46:01;3.00;99.90
10678;DHT22;5387;48.722;9.110;2023-02-21T02:48:33;3.00;99.90
10678;DHT22;5387;48.722;9.110;2023-02-21T02:51:06;3.10;99.90
10678;DHT22;5387;48.722;9.110;2023-02-21T02:53:34;3.10;99.90
10678;DHT22;5387;48.722;9.110;2023-02-21T02:56:03;3.20;99.90
10678;DHT22;5387;48.722;9.110;2023-02-21T02:58:33;3.20;99.90
10678;DHT22;5387;48.722;9.110;2023-02-21T03:01:15;3.20;99.90
10678;DHT22;5387;48.722;9.110;2023-02-21T03:03:54;3.20;99.90
10678;DHT22;5387;48.722;9.110;2023-02-21T03:06:30;3.10;99.90
10678;DHT22;5387;48.722;9.110;2023-02-21T03:09:05;3.10;99.90
10678;DHT22;5387;48.722;9.110;2023-02-21T03:11:42;3.10;99.90
10678;DHT22;5387;48.722;9.110;2023-02-21T03:14:14;3.00;99.90
10678;DHT22;5387;48.722;9.110;2023-02-21T03:16:45;3.10;99.90
10678;DHT22;5387;48.722;9.110;2023-02-21T03:19:16;3.10;99.90
10678;DHT22;5387;48.722;9.110;2023-02-21T03:21:47;3.40;99.90
10678;DHT22;5387;48.722;9.110;2023-02-21T03:24:17;3.10;99.90
10678;DHT22;5387;48.722;9.110;2023-02-21T03:26:47;3.20;99.90
10678;DHT22;5387;48.722;9.110;2023-02-21T03:29:16;3.20;99.90
10678;DHT22;5387;48.722;9.110;2023-02-21T03:31:49;3.20;99.90
10678;DHT22;5387;48.722;9.110;2023-02-21T03:34:16;3.20;99.90
10678;DHT22;5387;48.722;9.110;2023-02-21T03:36:45;3.10;99.90
10678;DHT22;5387;48.722;9.110;2023-02-21T03:39:12;3.00;99.90
10678;DHT22;5387;48.722;9.110;2023-02-21T03:41:39;3.00;99.90
10678;DHT22;5387;48.722;9.110;2023-02-21T03:44:06;2.90;99.90
10678;DHT22;5387;48.722;9.110;2023-02-21T03:46:33;2.80;99.90
10678;DHT22;5387;48.722;9.110;2023-02-21T03:49:00;2.70;99.90
10678;DHT22;5387;48.722;9.110;2023-02-21T03:51:27;2.80;99.90
10678;DHT22;5387;48.722;9.110;2023-02-21T03:53:55;2.60;99.90
10678;DHT22;5387;48.722;9.110;2023-02-21T03:56:22;2.60;99.90
10678;DHT22;5387;48.722;9.110;2023-02-21T03:58:48;2.50;99.90
10678;DHT22;5387;48.722;9.110;2023-02-21T04:01:15;2.60;99.90
10678;DHT22;5387;48.722;9.110;2023-02-21T04:03:42;2.50;99.90
10678;DHT22;5387;48.722;9.110;2023-02-21T04:06:09;2.60;99.90
10678;DHT22;5387;48.722;9.110;2023-02-21T04:08:36;2.60;99.90
10678;DHT22;5387;48.722;9.110;2023-02-21T04:11:04;2.60;99.90
10678;DHT22;5387;48.722;9.110;2023-02-21T04:13:31;2.50;99.90
10678;DHT22;5387;48.722;9.110;2023-02-21T04:15:58;2.50;99.90
10678;DHT22;5387;48.722;9.110;2023-02-21T04:18:24;2.60;99.90
10678;DHT22;5387;48.722;9.110;2023-02-21T04:20:51;2.70;99.90
10678;DHT22;5387;48.722;9.110;2023-02-21T04:23:20;2.70;99.90
10678;DHT22;5387;48.722;9.110;2023-02-21T04:25:47;2.90;99.90
10678;DHT22;5387;48.722;9.110;2023-02-21T04:28:15;2.80;99.90
10678;DHT22;5387;48.722;9.110;2023-02-21T04:30:41;2.90;99.90
10678;DHT22;5387;48.722;9.110;2023-02-21T04:33:08;2.70;99.90
10678;DHT22;5387;48.722;9.110;2023-02-21T04:35:35;2.80;99.90
10678;DHT22;5387;48.722;9.110;2023-02-21T04:38:02;2.80;99.90
10678;DHT22;5387;48.722;9.110;2023-02-21T04:40:29;2.90;99.90
10678;DHT22;5387;48.722;9.110;2023-02-21T04:42:55;2.60;99.90
10678;DHT22;5387;48.722;9.110;2023-02-21T04:45:23;2.60;99.90
10678;DHT22;5387;48.722;9.110;2023-02-21T04:47:50;2.60;99.90
10678;DHT22;5387;48.722;9.110;2023-02-21T04:50:17;2.70;99.90
10678;DHT22;5387;48.722;9.110;2023-02-21T04:52:46;2.60;99.90
10678;DHT22;5387;48.722;9.110;2023-02-21T04:55:13;2.60;99.90
10678;DHT22;5387;48.722;9.110;2023-02-21T04:57:40;2.60;99.90
10678;DHT22;5387;48.722;9.110;2023-02-21T05:00:09;2.60;99.90
10678;DHT22;5387;48.722;9.110;2023-02-21T05:02:38;2.60;99.90
10678;DHT22;5387;48.722;9.110;2023-02-21T05:05:08;2.70;99.90
10678;DHT22;5387;48.722;9.110;2023-02-21T05:07:34;2.80;99.90
10678;DHT22;5387;48.722;9.110;2023-02-21T05:10:01;2.90;99.90
10678;DHT22;5387;48.722;9.110;2023-02-21T05:12:29;2.90;99.90
10678;DHT22;5387;48.722;9.110;2023-02-21T05:14:57;2.80;99.90
10678;DHT22;5387;48.722;9.110;2023-02-21T05:17:23;2.90;99.90
10678;DHT22;5387;48.722;9.110;2023-02-21T05:19:53;2.70;99.90
10678;DHT22;5387;48.722;9.110;2023-02-21T05:22:20;2.70;99.90
10678;DHT22;5387;48.722;9.110;2023-02-21T05:24:48;2.70;99.90
10678;DHT22;5387;48.722;9.110;2023-02-21T05:27:16;2.70;99.90
10678;DHT22;5387;48.722;9.110;2023-02-21T05:29:45;2.70;99.90
10678;DHT22;5387;48.722;9.110;2023-02-21T05:32:13;2.70;99.90
10678;DHT22;5387;48.722;9.110;2023-02-21T05:34:40;2.70;99.90
10678;DHT22;5387;48.722;9.110;2023-02-21T05:37:10;2.80;99.90
10678;DHT22;5387;48.722;9.110;2023-02-21T05:39:37;2.80;99.90
10678;DHT22;5387;48.722;9.110;2023-02-21T05:42:04;2.70;99.90
10678;DHT22;5387;48.722;9.110;2023-02-21T05:44:32;2.70;99.90
10678;DHT22;5387;48.722;9.110;2023-02-21T05:46:59;2.70;99.90
10678;DHT22;5387;48.722;9.110;2023-02-21T05:49:27;2.50;99.90
10678;DHT22;5387;48.722;9.110;2023-02-21T05:51:54;2.50;99.90
10678;DHT22;5387;48.722;9.110;2023-02-21T05:54:22;2.60;99.90
10678;DHT22;5387;48.722;9.110;2023-02-21T05:56:50;2.50;99.90
10678;DHT22;5387;48.722;9.110;2023-02-21T05:59:18;2.60;99.90
10678;DHT22;5387;48.722;9.110;2023-02-21T06:01:45;2.60;99.90
10678;DHT22;5387;48.722;9.110;2023-02-21T06:04:12;2.60;99.90
10678;DHT22;5387;48.722;9.110;2023-02-21T06:06:39;2.60;99.90
10678;DHT22;5387;48.722;9.110;2023-02-21T06:09:06;2.60;99.90
10678;DHT22;5387;48.722;9.110;2023-02-21T06:11:36;2.50;99.90
10678;DHT22;5387;48.722;9.110;2023-02-21T06:14:05;2.60;99.90
10678;DHT22;5387;48.722;9.110;2023-02-21T06:16:32;2.70;99.90
10678;DHT22;5387;48.722;9.110;2023-02-21T06:19:00;2.60;99.90
10678;DHT22;5387;48.722;9.110;2023-02-21T06:21:27;2.50;99.90
10678;DHT22;5387;48.722;9.110;2023-02-21T06:23:54;2.50;99.90
10678;DHT22;5387;48.722;9.110;2023-02-21T06:26:21;2.40;99.90
10678;DHT22;5387;48.722;9.110;2023-02-21T06:28:49;2.40;99.90
10678;DHT22;5387;48.722;9.110;2023-02-21T06:31:17;2.50;99.90
10678;DHT22;5387;48.722;9.110;2023-02-21T06:33:44;2.50;99.90
10678;DHT22;5387;48.722;9.110;2023-02-21T06:36:14;2.60;99.90
10678;DHT22;5387;48.722;9.110;2023-02-21T06:38:43;2.60;99.90
10678;DHT22;5387;48.722;9.110;2023-02-21T06:41:10;2.70;99.90
10678;DHT22;5387;48.722;9.110;2023-02-21T06:43:37;2.70;99.90
10678;DHT22;5387;48.722;9.110;2023-02-21T06:46:05;2.70;99.90
10678;DHT22;5387;48.722;9.110;2023-02-21T06:48:32;2.60;99.90
10678;DHT22;5387;48.722;9.110;2023-02-21T06:50:59;2.60;99.90
10678;DHT22;5387;48.722;9.110;2023-02-21T06:53:25;2.60;99.90
10678;DHT22;5387;48.722;9.110;2023-02-21T06:55:52;2.60;99.90
10678;DHT22;5387;48.722;9.110;2023-02-21T06:58:19;2.90;99.90
10678;DHT22;5387;48.722;9.110;2023-02-21T07:00:46;2.80;99.90
10678;DHT22;5387;48.722;9.110;2023-02-21T07:03:14;2.90;99.90
10678;DHT22;5387;48.722;9.110;2023-02-21T07:05:41;3.00;99.90
10678;DHT22;5387;48.722;9.110;2023-02-21T07:08:08;3.00;99.90
10678;DHT22;5387;48.722;9.110;2023-02-21T07:10:35;3.10;99.90
10678;DHT22;5387;48.722;9.110;2023-02-21T07:13:02;3.30;99.90
10678;DHT22;5387;48.722;9.110;2023-02-21T07:15:30;3.40;99.90
10678;DHT22;5387;48.722;9.110;2023-02-21T07:17:57;3.60;99.90
10678;DHT22;5387;48.722;9.110;2023-02-21T07:20:25;3.70;99.90
10678;DHT22;5387;48.722;9.110;2023-02-21T07:22:52;3.90;99.90
10678;DHT22;5387;48.722;9.110;2023-02-21T07:25:20;3.90;99.90
10678;DHT22;5387;48.722;9.110;2023-02-21T07:27:48;4.00;99.90
10678;DHT22;5387;48.722;9.110;2023-02-21T07:30:17;4.20;99.90
10678;DHT22;5387;48.722;9.110;2023-02-21T07:32:44;4.30;99.90
10678;DHT22;5387;48.722;9.110;2023-02-21T07:35:11;4.40;99.90
10678;DHT22;5387;48.722;9.110;2023-02-21T07:37:39;4.70;99.90
10678;DHT22;5387;48.722;9.110;2023-02-21T07:40:06;4.80;99.90
10678;DHT22;5387;48.722;9.110;2023-02-21T07:42:33;5.10;99.90
10678;DHT22;5387;48.722;9.110;2023-02-21T07:45:01;5.20;99.90
10678;DHT22;5387;48.722;9.110;2023-02-21T07:47:28;5.40;99.90
10678;DHT22;5387;48.722;9.110;2023-02-21T07:49:55;5.50;99.90
10678;DHT22;5387;48.722;9.110;2023-02-21T07:52:22;5.70;99.90
10678;DHT22;5387;48.722;9.110;2023-02-21T07:54:50;5.90;99.90
10678;DHT22;5387;48.722;9.110;2023-02-21T07:57:17;6.10;99.90
10678;DHT22;5387;48.722;9.110;2023-02-21T07:59:44;6.20;99.90
10678;DHT22;5387;48.722;9.110;2023-02-21T08:02:13;6.40;99.90
10678;DHT22;5387;48.722;9.110;2023-02-21T08:04:40;6.50;99.90
10678;DHT22;5387;48.722;9.110;2023-02-21T08:07:07;6.80;99.90
10678;DHT22;5387;48.722;9.110;2023-02-21T08:09:35;6.90;99.90
10678;DHT22;5387;48.722;9.110;2023-02-21T08:12:04;7.00;99.90
10678;DHT22;5387;48.722;9.110;2023-02-21T08:14:31;7.20;99.90
10678;DHT22;5387;48.722;9.110;2023-02-21T08:16:58;7.30;99.90
10678;DHT22;5387;48.722;9.110;2023-02-21T08:19:25;7.60;99.90
10678;DHT22;5387;48.722;9.110;2023-02-21T08:21:51;7.70;99.90
10678;DHT22;5387;48.722;9.110;2023-02-21T08:24:18;8.00;99.90
10678;DHT22;5387;48.722;9.110;2023-02-21T08:26:45;8.20;99.90
10678;DHT22;5387;48.722;9.110;2023-02-21T08:29:14;8.50;99.90
10678;DHT22;5387;48.722;9.110;2023-02-21T08:31:42;8.70;99.90
10678;DHT22;5387;48.722;9.110;2023-02-21T08:34:10;9.00;99.90
10678;DHT22;5387;48.722;9.110;2023-02-21T08:36:39;9.30;99.90
10678;DHT22;5387;48.722;9.110;2023-02-21T08:39:07;9.50;99.90
10678;DHT22;5387;48.722;9.110;2023-02-21T08:41:35;9.80;99.90
10678;DHT22;5387;48.722;9.110;2023-02-21T08:44:03;10.00;99.90
10678;DHT22;5387;48.722;9.110;2023-02-21T08:46:31;10.10;99.90
10678;DHT22;5387;48.722;9.110;2023-02-21T08:48:58;10.30;99.90
10678;DHT22;5387;48.722;9.110;2023-02-21T08:51:25;10.40;99.90
10678;DHT22;5387;48.722;9.110;2023-02-21T08:53:52;10.60;99.90
10678;DHT22;5387;48.722;9.110;2023-02-21T08:56:19;10.50;99.90
10678;DHT22;5387;48.722;9.110;2023-02-21T08:58:47;10.70;99.90
10678;DHT22;5387;48.722;9.110;2023-02-21T09:01:14;10.90;99.90
10678;DHT22;5387;48.722;9.110;2023-02-21T09:03:44;11.10;99.90
10678;DHT22;5387;48.722;9.110;2023-02-21T09:06:12;11.30;99.90
10678;DHT22;5387;48.722;9.110;2023-02-21T09:08:39;11.30;99.90
10678;DHT22;5387;48.722;9.110;2023-02-21T09:11:06;11.50;99.90
10678;DHT22;5387;48.722;9.110;2023-02-21T09:13:33;11.60;99.90
10678;DHT22;5387;48.722;9.110;2023-02-21T09:16:01;11.70;99.90
10678;DHT22;5387;48.722;9.110;2023-02-21T09:18:30;11.60;99.90
10678;DHT22;5387;48.722;9.110;2023-02-21T09:20:58;11.80;99.90
10678;DHT22;5387;48.722;9.110;2023-02-21T09:23:27;11.60;99.90
10678;DHT22;5387;48.722;9.110;2023-02-21T09:25:54;11.60;99.90
10678;DHT22;5387;48.722;9.110;2023-02-21T09:28:21;11.50;99.90
10678;DHT22;5387;48.722;9.110;2023-02-21T09:30:48;11.40;99.90
10678;DHT22;5387;48.722;9.110;2023-02-21T09:33:15;11.60;99.90
10678;DHT22;5387;48.722;9.110;2023-02-21T09:35:42;11.60;99.90
10678;DHT22;5387;48.722;9.110;2023-02-21T09:38:10;11.80;99.90
10678;DHT22;5387;48.722;9.110;2023-02-21T09:40:40;12.00;99.90
10678;DHT22;5387;48.722;9.110;2023-02-21T09:43:12;12.00;99.90
10678;DHT22;5387;48.722;9.110;2023-02-21T09:45:41;12.20;99.90
10678;DHT22;5387;48.722;9.110;2023-02-21T09:48:13;12.30;99.90
10678;DHT22;5387;48.722;9.110;2023-02-21T09:50:43;12.40;99.90
10678;DHT22;5387;48.722;9.110;2023-02-21T09:53:15;12.50;99.90
10678;DHT22;5387;48.722;9.110;2023-02-21T09:55:43;12.40;99.90
10678;DHT22;5387;48.722;9.110;2023-02-21T09:58:11;12.80;99.90
10678;DHT22;5387;48.722;9.110;2023-02-21T10:00:38;12.80;99.90
10678;DHT22;5387;48.722;9.110;2023-02-21T10:03:30;12.90;99.90
10678;DHT22;5387;48.722;9.110;2023-02-21T10:06:07;13.00;99.90
10678;DHT22;5387;48.722;9.110;2023-02-21T10:08:45;13.10;99.90
10678;DHT22;5387;48.722;9.110;2023-02-21T10:11:30;13.00;99.90
10678;DHT22;5387;48.722;9.110;2023-02-21T10:14:05;13.00;99.90
10678;DHT22;5387;48.722;9.110;2023-02-21T10:16:41;12.80;99.90
10678;DHT22;5387;48.722;9.110;2023-02-21T10:19:14;12.80;99.90
10678;DHT22;5387;48.722;9.110;2023-02-21T10:21:45;12.80;99.90
10678;DHT22;5387;48.722;9.110;2023-02-21T10:24:15;13.00;99.90
10678;DHT22;5387;48.722;9.110;2023-02-21T10:26:45;13.20;99.90
10678;DHT22;5387;48.722;9.110;2023-02-21T10:29:20;13.30;99.90
10678;DHT22;5387;48.722;9.110;2023-02-21T10:31:51;13.40;99.90
10678;DHT22;5387;48.722;9.110;2023-02-21T10:34:23;13.50;99.90
10678;DHT22;5387;48.722;9.110;2023-02-21T10:36:51;13.70;99.90
10678;DHT22;5387;48.722;9.110;2023-02-21T10:39:21;13.60;99.90
10678;DHT22;5387;48.722;9.110;2023-02-21T10:41:50;13.70;99.90
10678;DHT22;5387;48.722;9.110;2023-02-21T10:44:20;13.80;99.90
10678;DHT22;5387;48.722;9.110;2023-02-21T10:46:53;14.00;99.90
10678;DHT22;5387;48.722;9.110;2023-02-21T10:49:24;14.30;99.90
10678;DHT22;5387;48.722;9.110;2023-02-21T10:52:03;14.40;99.90
10678;DHT22;5387;48.722;9.110;2023-02-21T10:54:32;14.30;99.90
10678;DHT22;5387;48.722;9.110;2023-02-21T10:56:59;14.40;99.90
10678;DHT22;5387;48.722;9.110;2023-02-21T10:59:29;14.10;99.90
10678;DHT22;5387;48.722;9.110;2023-02-21T11:01:57;14.10;99.90
10678;DHT22;5387;48.722;9.110;2023-02-21T11:04:29;14.10;99.90
10678;DHT22;5387;48.722;9.110;2023-02-21T11:07:01;14.40;99.90
10678;DHT22;5387;48.722;9.110;2023-02-21T11:09:34;14.30;99.90
10678;DHT22;5387;48.722;9.110;2023-02-21T11:12:05;14.20;99.90
10678;DHT22;5387;48.722;9.110;2023-02-21T11:14:33;14.30;99.90
10678;DHT22;5387;48.722;9.110;2023-02-21T11:17:12;14.10;99.90
10678;DHT22;5387;48.722;9.110;2023-02-21T11:19:48;14.20;99.90
10678;DHT22;5387;48.722;9.110;2023-02-21T11:22:17;14.30;99.90
10678;DHT22;5387;48.722;9.110;2023-02-21T11:24:59;14.40;99.90
10678;DHT22;5387;48.722;9.110;2023-02-21T11:27:29;14.60;99.90
10678;DHT22;5387;48.722;9.110;2023-02-21T11:29:57;14.70;99.90
10678;DHT22;5387;48.722;9.110;2023-02-21T11:32:28;15.20;99.90
10678;DHT22;5387;48.722;9.110;2023-02-21T11:35:21;15.70;99.90
10678;DHT22;5387;48.722;9.110;2023-02-21T11:37:50;16.50;99.90
10678;DHT22;5387;48.722;9.110;2023-02-21T11:40:33;16.40;99.90
10678;DHT22;5387;48.722;9.110;2023-02-21T11:43:20;16.90;99.90
10678;DHT22;5387;48.722;9.110;2023-02-21T11:46:03;17.80;99.90
10678;DHT22;5387;48.722;9.110;2023-02-21T11:48:33;18.30;99.90
10678;DHT22;5387;48.722;9.110;2023-02-21T11:51:05;18.10;99.90
10678;DHT22;5387;48.722;9.110;2023-02-21T11:53:38;17.90;99.90
10678;DHT22;5387;48.722;9.110;2023-02-21T11:56:16;17.50;99.90
10678;DHT22;5387;48.722;9.110;2023-02-21T11:58:52;16.80;99.90
10678;DHT22;5387;48.722;9.110;2023-02-21T12:01:27;16.50;99.90
10678;DHT22;5387;48.722;9.110;2023-02-21T12:04:23;16.10;99.90
10678;DHT22;5387;48.722;9.110;2023-02-21T12:06:58;15.60;99.90
10678;DHT22;5387;48.722;9.110;2023-02-21T12:09:30;15.70;99.90
10678;DHT22;5387;48.722;9.110;2023-02-21T12:12:14;15.60;99.90
10678;DHT22;5387;48.722;9.110;2023-02-21T12:14:54;15.60;99.90
10678;DHT22;5387;48.722;9.110;2023-02-21T12:17:37;15.50;99.90
10678;DHT22;5387;48.722;9.110;2023-02-21T12:20:19;15.40;99.90
10678;DHT22;5387;48.722;9.110;2023-02-21T12:22:58;15.50;99.90
10678;DHT22;5387;48.722;9.110;2023-02-21T12:25:31;15.50;99.90
10678;DHT22;5387;48.722;9.110;2023-02-21T12:28:13;15.40;99.90
10678;DHT22;5387;48.722;9.110;2023-02-21T12:31:01;15.60;99.90
10678;DHT22;5387;48.722;9.110;2023-02-21T12:33:40;15.60;99.90
10678;DHT22;5387;48.722;9.110;2023-02-21T12:36:34;15.80;99.90
10678;DHT22;5387;48.722;9.110;2023-02-21T12:39:21;15.80;99.90
10678;DHT22;5387;48.722;9.110;2023-02-21T12:42:11;15.80;99.90
10678;DHT22;5387;48.722;9.110;2023-02-21T12:44:49;15.90;99.90
10678;DHT22;5387;48.722;9.110;2023-02-21T12:47:26;15.90;99.90
10678;DHT22;5387;48.722;9.110;2023-02-21T12:49:59;16.00;99.90
10678;DHT22;5387;48.722;9.110;2023-02-21T12:52:33;16.00;99.90
10678;DHT22;5387;48.722;9.110;2023-02-21T12:55:02;16.10;99.90
10678;DHT22;5387;48.722;9.110;2023-02-21T12:57:33;16.20;99.90
10678;DHT22;5387;48.722;9.110;2023-02-21T13:00:11;16.00;99.90
10678;DHT22;5387;48.722;9.110;2023-02-21T13:02:49;15.90;99.90
10678;DHT22;5387;48.722;9.110;2023-02-21T13:05:22;15.90;99.90
10678;DHT22;5387;48.722;9.110;2023-02-21T13:07:56;15.90;99.90
10678;DHT22;5387;48.722;9.110;2023-02-21T13:10:29;16.10;99.90
10678;DHT22;5387;48.722;9.110;2023-02-21T13:12:59;16.10;99.80
10678;DHT22;5387;48.722;9.110;2023-02-21T13:15:30;15.90;99.90
10678;DHT22;5387;48.722;9.110;2023-02-21T13:17:59;15.70;99.90
10678;DHT22;5387;48.722;9.110;2023-02-21T13:20:29;15.70;99.30
10678;DHT22;5387;48.722;9.110;2023-02-21T13:26:26;15.90;99.90
10678;DHT22;5387;48.722;9.110;2023-02-21T13:28:57;16.00;99.10
10678;DHT22;5387;48.722;9.110;2023-02-21T13:31:27;15.70;99.50
10678;DHT22;5387;48.722;9.110;2023-02-21T13:34:02;15.70;99.90
10678;DHT22;5387;48.722;9.110;2023-02-21T13:36:39;15.70;99.50
10678;DHT22;5387;48.722;9.110;2023-02-21T13:39:11;15.80;99.20
10678;DHT22;5387;48.722;9.110;2023-02-21T13:41:41;15.80;99.10
10678;DHT22;5387;48.722;9.110;2023-02-21T13:44:12;15.80;99.20
10678;DHT22;5387;48.722;9.110;2023-02-21T13:47:07;15.90;99.40
10678;DHT22;5387;48.722;9.110;2023-02-21T13:49:44;15.90;99.20
10678;DHT22;5387;48.722;9.110;2023-02-21T13:52:36;15.90;99.30
10678;DHT22;5387;48.722;9.110;2023-02-21T13:55:26;15.60;99.00
10678;DHT22;5387;48.722;9.110;2023-02-21T14:07:55;15.60;99.10
10678;DHT22;5387;48.722;9.110;2023-02-21T14:10:42;15.70;99.20
10678;DHT22;5387;48.722;9.110;2023-02-21T14:13:22;15.60;98.80
10678;DHT22;5387;48.722;9.110;2023-02-21T14:15:56;15.60;98.30
10678;DHT22;5387;48.722;9.110;2023-02-21T14:18:26;15.60;98.10
10678;DHT22;5387;48.722;9.110;2023-02-21T14:20:55;15.60;99.50
10678;DHT22;5387;48.722;9.110;2023-02-21T14:23:36;15.70;98.60
10678;DHT22;5387;48.722;9.110;2023-02-21T14:26:05;15.70;97.80
10678;DHT22;5387;48.722;9.110;2023-02-21T14:29:01;15.60;97.90
10678;DHT22;5387;48.722;9.110;2023-02-21T14:31:52;15.70;97.90
10678;DHT22;5387;48.722;9.110;2023-02-21T14:34:23;15.40;97.60
10678;DHT22;5387;48.722;9.110;2023-02-21T14:36:55;15.40;97.60
10678;DHT22;5387;48.722;9.110;2023-02-21T14:39:29;15.40;97.40
10678;DHT22;5387;48.722;9.110;2023-02-21T14:42:09;15.30;97.60
10678;DHT22;5387;48.722;9.110;2023-02-21T14:44:54;15.30;97.30
10678;DHT22;5387;48.722;9.110;2023-02-21T14:47:40;15.20;97.00
10678;DHT22;5387;48.722;9.110;2023-02-21T14:50:19;15.20;97.50
10678;DHT22;5387;48.722;9.110;2023-02-21T14:53:19;15.10;97.90
10678;DHT22;5387;48.722;9.110;2023-02-21T14:56:18;15.10;97.50
10678;DHT22;5387;48.722;9.110;2023-02-21T15:01:56;15.20;97.60
10678;DHT22;5387;48.722;9.110;2023-02-21T15:04:32;15.00;97.30
10678;DHT22;5387;48.722;9.110;2023-02-21T15:07:09;15.00;97.40
10678;DHT22;5387;48.722;9.110;2023-02-21T15:09:39;14.90;97.20
10678;DHT22;5387;48.722;9.110;2023-02-21T15:12:09;14.90;97.00
10678;DHT22;5387;48.722;9.110;2023-02-21T15:14:40;15.00;97.20
10678;DHT22;5387;48.722;9.110;2023-02-21T15:17:15;15.10;96.90
10678;DHT22;5387;48.722;9.110;2023-02-21T15:19:42;15.10;97.00
10678;DHT22;5387;48.722;9.110;2023-02-21T15:22:15;15.10;97.30
10678;DHT22;5387;48.722;9.110;2023-02-21T15:24:59;15.20;97.40
10678;DHT22;5387;48.722;9.110;2023-02-21T15:27:29;15.20;97.00
10678;DHT22;5387;48.722;9.110;2023-02-21T15:30:06;15.30;98.10
10678;DHT22;5387;48.722;9.110;2023-02-21T15:32:34;15.20;97.30
10678;DHT22;5387;48.722;9.110;2023-02-21T15:35:03;15.20;96.90
10678;DHT22;5387;48.722;9.110;2023-02-21T15:37:32;15.20;96.70
10678;DHT22;5387;48.722;9.110;2023-02-21T15:40:02;15.10;97.00
10678;DHT22;5387;48.722;9.110;2023-02-21T15:42:39;15.10;97.30
10678;DHT22;5387;48.722;9.110;2023-02-21T15:45:10;15.00;97.80
10678;DHT22;5387;48.722;9.110;2023-02-21T15:47:38;15.10;97.50
10678;DHT22;5387;48.722;9.110;2023-02-21T15:50:07;14.90;97.80
10678;DHT22;5387;48.722;9.110;2023-02-21T15:52:38;14.90;98.30
10678;DHT22;5387;48.722;9.110;2023-02-21T15:55:13;14.90;97.90
10678;DHT22;5387;48.722;9.110;2023-02-21T15:57:41;14.70;98.00
10678;DHT22;5387;48.722;9.110;2023-02-21T16:00:21;14.70;98.00
10678;DHT22;5387;48.722;9.110;2023-02-21T16:02:48;14.60;98.30
10678;DHT22;5387;48.722;9.110;2023-02-21T16:05:26;14.50;98.20
10678;DHT22;5387;48.722;9.110;2023-02-21T16:07:59;14.30;98.40
10678;DHT22;5387;48.722;9.110;2023-02-21T16:10:29;14.30;98.40
10678;DHT22;5387;48.722;9.110;2023-02-21T16:12:59;14.30;98.70
10678;DHT22;5387;48.722;9.110;2023-02-21T16:15:28;14.00;99.20
10678;DHT22;5387;48.722;9.110;2023-02-21T16:17:56;13.90;99.40
10678;DHT22;5387;48.722;9.110;2023-02-21T16:20:28;13.70;99.40
10678;DHT22;5387;48.722;9.110;2023-02-21T16:23:22;13.80;99.80
10678;DHT22;5387;48.722;9.110;2023-02-21T16:25:58;13.50;99.90
10678;DHT22;5387;48.722;9.110;2023-02-21T16:28:26;13.50;99.90
10678;DHT22;5387;48.722;9.110;2023-02-21T16:30:54;13.50;99.90
10678;DHT22;5387;48.722;9.110;2023-02-21T16:33:23;13.40;99.90
10678;DHT22;5387;48.722;9.110;2023-02-21T16:35:51;13.40;99.90
10678;DHT22;5387;48.722;9.110;2023-02-21T16:38:19;13.30;99.90
10678;DHT22;5387;48.722;9.110;2023-02-21T16:40:47;13.40;99.90
10678;DHT22;5387;48.722;9.110;2023-02-21T16:43:20;13.20;99.90
10678;DHT22;5387;48.722;9.110;2023-02-21T16:45:51;13.00;99.90
10678;DHT22;5387;48.722;9.110;2023-02-21T16:48:20;12.90;99.90
10678;DHT22;5387;48.722;9.110;2023-02-21T16:50:49;12.80;99.90
10678;DHT22;5387;48.722;9.110;2023-02-21T16:53:17;12.60;99.90
10678;DHT22;5387;48.722;9.110;2023-02-21T16:55:44;12.60;99.90
10678;DHT22;5387;48.722;9.110;2023-02-21T16:58:18;12.60;99.90